createdAt,value
2024-04-14T00:01:31.891Z,23.20
2024-04-14T00:04:34.443Z,23.18
2024-04-14T00:07:38.017Z,23.15
2024-04-14T00:10:40.396Z,23.19
2024-04-14T00:13:42.788Z,23.18
2024-04-14T00:16:45.145Z,23.17
2024-04-14T00:19:52.905Z,23.17
2024-04-14T00:22:55.906Z,23.14
2024-04-14T00:25:58.263Z,23.15
2024-04-14T00:29:00.638Z,23.23
2024-04-14T00:32:03.129Z,23.17
2024-04-14T00:35:05.636Z,23.20
2024-04-14T00:38:08.078Z,23.24
2024-04-14T00:41:10.478Z,23.32
2024-04-14T00:44:12.910Z,23.36
2024-04-14T00:47:15.570Z,23.47
2024-04-14T00:50:18.102Z,23.54
2024-04-14T00:53:21.670Z,23.63
2024-04-14T00:56:24.732Z,23.59
2024-04-14T00:59:28.021Z,23.56
2024-04-14T01:02:30.476Z,23.57
2024-04-14T01:05:32.850Z,23.61
2024-04-14T01:08:35.519Z,23.68
2024-04-14T01:11:37.903Z,23.69
2024-04-14T01:14:40.618Z,23.64
2024-04-14T01:17:44.674Z,23.57
2024-04-14T01:20:47.235Z,23.53
2024-04-14T01:23:49.542Z,23.51
2024-04-14T01:26:51.966Z,23.53
2024-04-14T01:29:54.327Z,23.44
2024-04-14T01:32:57.807Z,23.44
2024-04-14T01:36:00.263Z,23.43
2024-04-14T01:39:02.669Z,23.47
2024-04-14T01:42:05.368Z,23.51
2024-04-14T01:45:11.239Z,23.52
2024-04-14T01:48:14.002Z,23.47
2024-04-14T01:51:16.516Z,23.38
2024-04-14T01:54:18.949Z,23.38
2024-04-14T01:57:21.571Z,23.33
2024-04-14T02:00:24.018Z,23.30
2024-04-14T02:03:26.613Z,23.31
2024-04-14T02:06:29.312Z,23.26
2024-04-14T02:09:32.580Z,23.27
2024-04-14T02:12:34.982Z,23.23
2024-04-14T02:15:37.480Z,23.24
2024-04-14T02:18:39.970Z,23.23
2024-04-14T02:21:43.769Z,23.25
2024-04-14T02:24:49.178Z,23.37
2024-04-14T02:27:51.702Z,23.32
2024-04-14T02:30:54.149Z,23.35
2024-04-14T02:33:56.655Z,23.32
2024-04-14T02:36:59.146Z,23.28
2024-04-14T02:40:02.303Z,23.19
2024-04-14T02:43:04.854Z,23.25
2024-04-14T02:46:07.299Z,23.32
2024-04-14T02:49:09.750Z,23.38
2024-04-14T02:52:12.062Z,23.38
2024-04-14T02:55:14.524Z,23.36
2024-04-14T02:58:18.583Z,23.43
2024-04-14T03:01:21.405Z,23.52
2024-04-14T03:04:26.083Z,23.58
2024-04-14T03:07:29.553Z,23.61
2024-04-14T03:10:35.183Z,23.65
2024-04-14T03:13:37.608Z,23.55
2024-04-14T03:16:40.046Z,23.46
2024-04-14T03:19:42.395Z,23.35
2024-04-14T03:22:44.789Z,23.31
2024-04-14T03:25:47.139Z,23.24
2024-04-14T03:28:49.556Z,23.28
2024-04-14T03:31:52.089Z,23.20
2024-04-14T03:34:54.499Z,23.15
2024-04-14T03:37:56.895Z,23.13
2024-04-14T03:40:59.268Z,23.17
2024-04-14T03:44:01.781Z,23.15
2024-04-14T03:47:04.443Z,23.18
2024-04-14T03:50:07.492Z,23.15
2024-04-14T03:53:09.983Z,23.14
2024-04-14T03:56:12.441Z,23.14
2024-04-14T03:59:14.775Z,23.19
2024-04-14T04:02:17.345Z,23.15
2024-04-14T04:05:19.701Z,23.14
2024-04-14T04:08:23.364Z,23.07
2024-04-14T04:11:25.837Z,23.05
2024-04-14T04:14:29.782Z,23.03
2024-04-14T04:17:32.276Z,23.08
2024-04-14T04:20:34.785Z,23.05
2024-04-14T04:23:37.349Z,23.02
2024-04-14T04:26:39.708Z,23.01
2024-04-14T04:29:42.245Z,23.02
2024-04-14T04:32:44.771Z,22.95
2024-04-14T04:35:57.706Z,22.98
2024-04-14T04:39:04.602Z,22.98
2024-04-14T04:42:07.273Z,22.99
2024-04-14T04:45:09.758Z,22.99
2024-04-14T04:48:12.183Z,23.06
2024-04-14T04:51:14.678Z,23.01
2024-04-14T04:54:17.854Z,23.06
2024-04-14T04:57:20.225Z,23.06
2024-04-14T05:00:22.616Z,23.06
2024-04-14T05:03:28.642Z,23.04
2024-04-14T05:06:34.850Z,23.05
2024-04-14T05:09:37.375Z,23.14
2024-04-14T05:12:39.854Z,23.10
2024-04-14T05:15:44.613Z,23.05
2024-04-14T05:18:47.359Z,23.07
2024-04-14T05:21:49.968Z,23.06
2024-04-14T05:24:52.370Z,23.09
2024-04-14T05:27:54.827Z,23.17
2024-04-14T05:30:57.585Z,23.12
2024-04-14T05:34:00.264Z,23.15
2024-04-14T05:37:03.453Z,23.15
2024-04-14T05:40:07.214Z,23.08
2024-04-14T05:43:10.394Z,23.13
2024-04-14T05:46:12.843Z,23.16
2024-04-14T05:49:18.867Z,23.15
2024-04-14T05:52:23.073Z,23.13
2024-04-14T05:55:26.205Z,23.08
2024-04-14T05:58:28.762Z,23.16
2024-04-14T06:01:31.175Z,23.11
2024-04-14T06:04:33.828Z,23.12
2024-04-14T06:07:37.017Z,23.13
2024-04-14T06:10:39.687Z,23.09
2024-04-14T06:13:42.074Z,23.15
2024-04-14T06:16:44.684Z,23.11
2024-04-14T06:19:47.139Z,23.14
2024-04-14T06:22:50.429Z,23.15
2024-04-14T06:25:52.923Z,23.21
2024-04-14T06:28:55.238Z,23.23
2024-04-14T06:31:57.662Z,23.24
2024-04-14T06:35:00.661Z,23.26
2024-04-14T06:38:03.016Z,23.27
2024-04-14T06:41:05.526Z,23.28
2024-04-14T06:44:08.036Z,23.19
2024-04-14T06:47:10.527Z,23.29
2024-04-14T06:50:13.002Z,23.40
2024-04-14T06:53:15.397Z,23.49
2024-04-14T06:56:17.773Z,23.53
2024-04-14T06:59:20.130Z,23.54
2024-04-14T07:02:22.549Z,23.51
2024-04-14T07:05:24.970Z,23.53
2024-04-14T07:08:27.429Z,23.53
2024-04-14T07:11:30.735Z,23.52
2024-04-14T07:14:33.231Z,23.58
2024-04-14T07:17:35.798Z,23.51
2024-04-14T07:20:41.679Z,23.31
2024-04-14T07:23:45.092Z,23.33
2024-04-14T07:26:47.547Z,23.23
2024-04-14T07:29:49.927Z,23.04
2024-04-14T07:32:52.316Z,23.04
2024-04-14T07:35:54.941Z,23.06
2024-04-14T07:38:57.499Z,23.23
2024-04-14T07:42:02.022Z,23.34
2024-04-14T07:45:04.814Z,23.34
2024-04-14T07:48:07.630Z,23.42
2024-04-14T07:51:10.221Z,23.40
2024-04-14T07:54:12.913Z,23.49
2024-04-14T07:57:15.339Z,23.55
2024-04-14T08:00:17.700Z,23.54
2024-04-14T08:03:20.305Z,23.51
2024-04-14T08:06:23.240Z,23.59
2024-04-14T08:09:25.648Z,23.58
2024-04-14T08:12:29.456Z,23.63
2024-04-14T08:15:31.969Z,23.73
2024-04-14T08:18:34.441Z,23.63
2024-04-14T08:21:37.456Z,23.76
2024-04-14T08:24:40.099Z,23.83
2024-04-14T08:27:42.626Z,23.74
2024-04-14T08:30:45.046Z,23.84
2024-04-14T08:33:47.667Z,23.85
2024-04-14T08:36:50.224Z,23.86
2024-04-14T08:39:52.748Z,23.88
2024-04-14T08:42:56.756Z,23.91
2024-04-14T08:46:00.258Z,23.92
2024-04-14T08:49:02.916Z,23.94
2024-04-14T08:52:06.106Z,23.98
2024-04-14T08:55:10.445Z,24.00
2024-04-14T08:58:15.399Z,24.03
2024-04-14T09:01:18.028Z,24.09
2024-04-14T09:04:21.490Z,24.06
2024-04-14T09:07:23.949Z,24.07
2024-04-14T09:10:26.814Z,24.10
2024-04-14T09:13:30.018Z,24.12
2024-04-14T09:16:32.581Z,24.17
2024-04-14T09:19:40.703Z,24.19
2024-04-14T09:22:43.211Z,24.24
2024-04-14T09:25:45.670Z,24.27
2024-04-14T09:28:48.222Z,24.33
2024-04-14T09:31:50.668Z,24.39
2024-04-14T09:34:53.110Z,24.44
2024-04-14T09:37:58.778Z,24.46
2024-04-14T09:41:03.526Z,24.50
2024-04-14T09:44:06.894Z,24.53
2024-04-14T09:47:09.963Z,24.55
2024-04-14T09:50:12.498Z,24.60
2024-04-14T09:53:16.216Z,24.64
2024-04-14T09:56:19.086Z,24.74
2024-04-14T09:59:21.628Z,24.74
2024-04-14T10:02:29.695Z,24.84
2024-04-14T10:05:34.018Z,24.82
2024-04-14T10:08:36.624Z,24.80
2024-04-14T10:11:39.647Z,24.82
2024-04-14T10:14:45.919Z,24.85
2024-04-14T10:17:49.489Z,24.88
2024-04-14T10:20:51.940Z,24.90
2024-04-14T10:23:56.124Z,24.95
2024-04-14T10:27:08.053Z,24.99
2024-04-14T10:30:11.577Z,25.07
2024-04-14T10:33:21.790Z,25.09
2024-04-14T10:36:27.724Z,25.09
2024-04-14T10:39:32.466Z,25.08
2024-04-14T10:42:37.930Z,25.11
2024-04-14T10:45:40.496Z,25.16
2024-04-14T10:48:45.480Z,25.16
2024-04-14T10:51:47.921Z,25.20
2024-04-14T10:54:50.807Z,25.21
2024-04-14T10:57:53.279Z,25.19
2024-04-14T11:00:56.134Z,25.19
2024-04-14T11:03:59.209Z,25.21
2024-04-14T11:07:05.175Z,25.26
2024-04-14T11:10:09.489Z,25.27
2024-04-14T11:13:16.933Z,25.32
2024-04-14T11:16:20.351Z,25.32
2024-04-14T11:19:22.748Z,25.29
2024-04-14T11:22:25.113Z,25.31
2024-04-14T11:25:27.521Z,25.30
2024-04-14T11:28:29.970Z,25.31
2024-04-14T11:31:35.195Z,25.28
2024-04-14T11:34:37.742Z,25.30
2024-04-14T11:37:45.968Z,25.27
2024-04-14T11:40:49.813Z,25.22
2024-04-14T11:43:52.289Z,25.21
2024-04-14T11:46:55.160Z,25.18
2024-04-14T11:49:57.650Z,25.16
2024-04-14T11:52:59.999Z,25.18
2024-04-14T11:56:03.152Z,25.20
2024-04-14T11:59:05.597Z,25.21
2024-04-14T12:02:08.021Z,25.21
2024-04-14T12:05:10.492Z,25.21
2024-04-14T12:08:13.312Z,25.24
2024-04-14T12:11:15.857Z,25.22
2024-04-14T12:14:18.282Z,25.25
2024-04-14T12:17:20.819Z,25.31
2024-04-14T12:20:23.564Z,25.37
2024-04-14T12:23:25.915Z,25.36
2024-04-14T12:26:28.316Z,25.31
2024-04-14T12:29:31.863Z,25.35
2024-04-14T12:32:34.301Z,25.35
2024-04-14T12:35:36.706Z,25.35
2024-04-14T12:38:39.126Z,25.34
2024-04-14T12:41:42.109Z,25.36
2024-04-14T12:44:44.541Z,25.35
2024-04-14T12:47:47.035Z,25.37
2024-04-14T12:50:51.467Z,25.38
2024-04-14T12:53:53.935Z,25.42
2024-04-14T12:56:56.328Z,25.48
2024-04-14T12:59:58.766Z,25.52
2024-04-14T13:03:01.261Z,25.44
2024-04-14T13:06:03.860Z,25.40
2024-04-14T13:09:06.362Z,25.36
2024-04-14T13:12:11.287Z,25.31
2024-04-14T13:15:14.216Z,25.28
2024-04-14T13:18:16.757Z,25.26
2024-04-14T13:21:19.261Z,25.25
2024-04-14T13:24:21.618Z,25.28
2024-04-14T13:27:23.938Z,25.28
2024-04-14T13:30:26.315Z,25.30
2024-04-14T13:33:28.790Z,25.29
2024-04-14T13:36:31.437Z,25.38
2024-04-14T13:39:33.846Z,25.43
2024-04-14T13:42:36.290Z,25.38
2024-04-14T13:45:38.754Z,25.45
2024-04-14T13:48:42.680Z,25.45
2024-04-14T13:51:45.242Z,25.46
2024-04-14T13:54:47.855Z,25.51
2024-04-14T13:57:50.311Z,25.53
2024-04-14T14:00:53.083Z,25.52
2024-04-14T14:03:55.704Z,25.54
2024-04-14T14:06:58.317Z,25.51
2024-04-14T14:10:01.044Z,25.50
2024-04-14T14:13:03.501Z,25.49
2024-04-14T14:16:07.462Z,25.46
2024-04-14T14:19:10.129Z,25.49
2024-04-14T14:22:13.711Z,25.47
2024-04-14T14:25:16.358Z,25.46
2024-04-14T14:28:18.761Z,25.49
2024-04-14T14:31:21.213Z,25.49
2024-04-14T14:34:43.279Z,25.52
2024-04-14T14:37:46.038Z,25.55
2024-04-14T14:40:48.419Z,25.56
2024-04-14T14:43:50.851Z,25.57
2024-04-14T14:46:53.450Z,25.56
2024-04-14T14:49:57.909Z,25.52
2024-04-14T14:53:00.383Z,25.55
2024-04-14T14:56:04.207Z,25.52
2024-04-14T14:59:06.668Z,25.55
2024-04-14T15:02:10.601Z,25.55
2024-04-14T15:05:12.997Z,25.55
2024-04-14T15:08:15.418Z,25.51
2024-04-14T15:11:19.293Z,25.62
2024-04-14T15:14:21.920Z,25.58
2024-04-14T15:17:24.406Z,25.56
2024-04-14T15:20:26.881Z,25.59
2024-04-14T15:23:32.156Z,25.58
2024-04-14T15:26:36.247Z,25.58
2024-04-14T15:29:39.622Z,25.54
2024-04-14T15:32:42.617Z,25.54
2024-04-14T15:35:45.246Z,25.57
2024-04-14T15:38:47.649Z,25.59
2024-04-14T15:41:50.080Z,25.56
2024-04-14T15:44:52.643Z,25.55
2024-04-14T15:47:55.029Z,25.56
2024-04-14T15:51:09.650Z,25.60
2024-04-14T15:54:20.442Z,25.56
2024-04-14T15:57:28.440Z,25.58
2024-04-14T16:00:37.097Z,25.54
2024-04-14T16:03:39.737Z,25.52
2024-04-14T16:06:42.209Z,25.54
2024-04-14T16:09:45.149Z,25.54
2024-04-14T16:12:49.572Z,25.48
2024-04-14T16:15:52.811Z,25.47
2024-04-14T16:18:56.273Z,25.47
2024-04-14T16:21:58.870Z,25.45
2024-04-14T16:25:01.439Z,25.44
2024-04-14T16:28:04.256Z,25.43
2024-04-14T16:31:06.816Z,25.42
2024-04-14T16:34:09.624Z,25.41
2024-04-14T16:37:12.114Z,25.39
2024-04-14T16:40:14.545Z,25.36
2024-04-14T16:43:17.163Z,25.35
2024-04-14T16:46:19.618Z,25.30
2024-04-14T16:49:22.117Z,25.26
2024-04-14T16:52:24.669Z,25.28
2024-04-14T16:55:27.978Z,25.27
2024-04-14T16:58:30.450Z,25.24
2024-04-14T17:01:33.037Z,25.23
2024-04-14T17:04:35.596Z,25.22
2024-04-14T17:07:38.132Z,25.19
2024-04-14T17:10:40.810Z,25.18
2024-04-14T17:13:43.219Z,25.16
2024-04-14T17:16:45.641Z,25.16
2024-04-14T17:19:48.219Z,25.13
2024-04-14T17:22:50.657Z,25.11
2024-04-14T17:25:53.078Z,25.10
2024-04-14T17:28:55.522Z,25.08
2024-04-14T17:31:57.845Z,25.03
2024-04-14T17:35:00.280Z,24.99
2024-04-14T17:38:02.636Z,24.98
2024-04-14T17:41:05.752Z,24.94
2024-04-14T17:44:08.225Z,24.93
2024-04-14T17:47:11.105Z,24.93
2024-04-14T17:50:13.562Z,24.95
2024-04-14T17:53:15.929Z,24.93
2024-04-14T17:56:18.500Z,24.94
2024-04-14T17:59:20.958Z,24.93
2024-04-14T18:02:24.664Z,24.92
2024-04-14T18:05:27.066Z,24.92
2024-04-14T18:08:29.406Z,24.90
2024-04-14T18:11:33.218Z,24.90
2024-04-14T18:14:35.697Z,24.90
2024-04-14T18:17:38.245Z,24.89
2024-04-14T18:20:41.790Z,24.87
2024-04-14T18:23:45.136Z,24.87
2024-04-14T18:26:47.512Z,24.87
2024-04-14T18:29:49.927Z,24.85
2024-04-14T18:32:52.345Z,24.86
2024-04-14T18:35:55.789Z,24.84
2024-04-14T18:38:58.083Z,24.84
2024-04-14T18:42:01.118Z,24.84
2024-04-14T18:45:03.730Z,24.83
2024-04-14T18:48:06.368Z,24.80
2024-04-14T18:51:10.059Z,24.82
2024-04-14T18:54:12.667Z,24.81
2024-04-14T18:57:15.008Z,24.80
2024-04-14T19:00:17.753Z,24.78
2024-04-14T19:03:20.257Z,24.78
2024-04-14T19:06:23.515Z,24.79
2024-04-14T19:09:25.855Z,24.77
2024-04-14T19:12:28.229Z,24.77
2024-04-14T19:15:30.675Z,24.75
2024-04-14T19:18:33.155Z,24.74
2024-04-14T19:21:35.613Z,24.73
2024-04-14T19:24:38.020Z,24.72
2024-04-14T19:27:40.463Z,24.72
2024-04-14T19:30:42.942Z,24.72
2024-04-14T19:33:45.534Z,24.69
2024-04-14T19:36:48.339Z,24.65
2024-04-14T19:39:50.705Z,24.64
2024-04-14T19:42:53.257Z,24.64
2024-04-14T19:45:55.837Z,24.64
2024-04-14T19:48:58.444Z,24.63
2024-04-14T19:52:01.090Z,24.62
2024-04-14T19:55:05.949Z,24.59
2024-04-14T19:58:08.440Z,24.60
2024-04-14T20:01:10.987Z,24.58
2024-04-14T20:04:13.684Z,24.58
2024-04-14T20:07:18.844Z,24.55
2024-04-14T20:10:21.351Z,24.55
2024-04-14T20:13:24.240Z,24.53
2024-04-14T20:16:26.859Z,24.51
2024-04-14T20:19:29.344Z,24.51
2024-04-14T20:22:31.868Z,24.51
2024-04-14T20:25:34.149Z,24.51
2024-04-14T20:28:37.669Z,24.50
2024-04-14T20:31:40.112Z,24.47
2024-04-14T20:34:42.703Z,24.44
2024-04-14T20:37:45.159Z,24.46
2024-04-14T20:40:56.696Z,24.42
2024-04-14T20:43:59.070Z,24.42
2024-04-14T20:47:01.449Z,24.42
2024-04-14T20:50:03.938Z,24.38
2024-04-14T20:53:06.283Z,24.38
2024-04-14T20:56:08.676Z,24.36
2024-04-14T20:59:11.174Z,24.34
2024-04-14T21:02:13.870Z,24.34
2024-04-14T21:05:16.579Z,24.34
2024-04-14T21:08:19.030Z,24.32
2024-04-14T21:11:21.487Z,24.32
2024-04-14T21:14:24.024Z,24.29
2024-04-14T21:17:26.484Z,24.30
2024-04-14T21:20:28.963Z,24.29
2024-04-14T21:23:31.400Z,24.27
2024-04-14T21:26:33.727Z,24.27
2024-04-14T21:29:36.173Z,24.26
2024-04-14T21:32:38.625Z,24.25
2024-04-14T21:35:41.019Z,24.24
2024-04-14T21:38:43.366Z,24.23
2024-04-14T21:41:45.737Z,24.22
2024-04-14T21:44:48.122Z,24.21
2024-04-14T21:47:50.690Z,24.21
2024-04-14T21:50:58.875Z,24.20
2024-04-14T21:54:01.922Z,24.19
2024-04-14T21:57:04.329Z,24.19
2024-04-14T22:00:07.722Z,24.19
2024-04-14T22:03:10.063Z,24.18
2024-04-14T22:06:12.652Z,24.16
2024-04-14T22:09:15.159Z,24.13
2024-04-14T22:12:17.605Z,24.14
2024-04-14T22:15:20.088Z,24.14
2024-04-14T22:18:22.559Z,24.13
2024-04-14T22:21:24.992Z,24.11
2024-04-14T22:24:27.939Z,24.08
2024-04-14T22:27:30.393Z,24.09
2024-04-14T22:30:32.807Z,24.08
2024-04-14T22:33:35.495Z,24.07
2024-04-14T22:36:37.996Z,24.06
2024-04-14T22:39:40.429Z,24.02
2024-04-14T22:42:42.795Z,24.00
2024-04-14T22:45:46.123Z,24.00
2024-04-14T22:48:48.526Z,23.99
2024-04-14T22:51:51.002Z,23.98
2024-04-14T22:54:53.441Z,23.97
2024-04-14T22:57:55.822Z,23.96
2024-04-14T23:00:58.434Z,23.96
2024-04-14T23:04:01.073Z,23.93
2024-04-14T23:07:03.808Z,23.94
2024-04-14T23:10:06.403Z,23.94
2024-04-14T23:13:08.865Z,23.91
2024-04-14T23:16:13.224Z,23.90
2024-04-14T23:19:15.870Z,23.89
2024-04-14T23:22:18.272Z,23.88
2024-04-14T23:25:20.853Z,23.88
2024-04-14T23:28:23.240Z,23.86
2024-04-14T23:31:25.608Z,23.86
2024-04-14T23:34:27.991Z,23.86
2024-04-14T23:37:30.380Z,23.85
2024-04-14T23:40:32.873Z,23.86
2024-04-14T23:43:35.271Z,23.84
2024-04-14T23:46:37.589Z,23.80
2024-04-14T23:49:40.024Z,23.81
2024-04-14T23:52:42.400Z,23.80
2024-04-14T23:55:47.691Z,23.79
2024-04-14T23:58:50.121Z,23.77
